Lewisport, KY

5:19 PM CDT on October 23, 2014 (GMT -0500)
RMR - Owensboro | Change Station
CLOSE
Current Station
Personal Weather Station
Location: Owensboro, KY
Elevation: 117 m
Nearby Weather Stations

Elev 117 m 37.83 °N, 87.02 °W | Updated 12 minutes ago

Partly Cloudy
Partly Cloudy
15.7 °C
Feels Like 15.7 °C
N
0.0
Wind Variable Wind from NNW
Gusts 0.0 km/h

Today
High -- | Low -- °C
--% Chance of Precip.
Yesterday
High -- | Low -- °C
Precip. -- mm
7:03 AM 5:59 PM
New Moon, 0% visible
Pressure 1021 hPa
Visibility 16.1 kilometers
Clouds Clear
Dew Point 7 °C
Humidity 56%
Rainfall 0 mm
Snow Depth Not available.
UV 1 out of 12
Pollen 1.30 out of 12
Air Quality Not available.
Flu Activity Sporadic
METAR KOWB 232156Z VRB03KT 10SM CLR 16/06 A3014 RMK AO2 T01550055 SLP206

More Conditions Fewer Conditions

Pressure 1021 hPa
Visibility 16.1 kilometers
Clouds Clear
Dew Point 7 °C
Humidity 56%
Rainfall 0 mm
Snow Depth Not available.
UV 1 out of 12
Pollen 1.30 out of 12
Air Quality Not available.
Flu Activity Sporadic
METAR KOWB 232156Z VRB03KT 10SM CLR 16/06 A3014 RMK AO2 T01550055 SLP206

More Conditions Fewer Conditions

10-Day Weather Forecast

Almanac

Astronomy

Oct. 23, 2014 Rise Set
Actual Time 7:03 AM CDT 5:59 PM CDT
Civil Twilight 6:37 AM CDT 6:26 PM CDT
Nautical Twilight 6:06 AM CDT 6:56 PM CDT
Astronomical Twilight 5:36 AM CDT 7:27 PM CDT
Moon 6:43 AM CDT 6:00 PM CDT
Length of Visible Light 11h 49m
Length of Day
10h 55m
Tomorrow will be 2m 16s shorter.
New Moon, 0% of the Moon is Illuminated
Today
New Moon
Oct 30
First Quarter
Nov 6
Full
Nov 14
Last Quarter
Nov 22
New

Today's Extremes

State Highs State Lows

Community

WunderPhotos

Upload Photos

1,764,383 photos uploaded!

WunderBlogs® & News

Nearby

Snow Depth

Station Depth Elevation
No new snow has been reported.

Earthquake Activity

City Distance Mag. Time & Date
No recent earthquake activity has been reported nearby.
Minimum magnitude displayed is 2.5.

Coastal Water Temperatures

Place Temperature
No Stations Reporting

Nearby Weather Stations